FWA weather

Fort Wayne International Airport
Fort Wayne, Indiana, United States

Public forecast

Using degrees Fahrenheit for public forecast. Weather courtesy of forecast.io.

Current aviation weather report (METAR) for Fort Wayne International Airport

Retrieved 2019/12/09 12:13 UTC (24 minutes ago):

KFWA 091213Z 16011KT 5SM RA BR SCT008 OVC045 09/08 A2966

Aviation forecast (TAF) for Fort Wayne International Airport

Retrieved 2019/12/09 12:39 UTC (0 seconds ago):

TAF KFWA 091135Z 0912/1012 19014G22KT 6SM -RA BR SCT010 OVC020 FM091300 20014G22KT 6SM -RA BR OVC010 FM091500 22014G20KT 2SM -RA OVC004 FM092100 24012KT 6SM BR VCSH OVC008 FM100200 27018G28KT P6SM -DZ OVC010 FM100900 27015KT P6SM OVC020